createdAt,value
2018-04-08T00:00:47.806Z,56.48
2018-04-08T00:03:16.710Z,56.35
2018-04-08T00:05:42.598Z,56.48
2018-04-08T00:08:12.121Z,57.13
2018-04-08T00:10:38.007Z,57.37
2018-04-08T00:13:03.847Z,57.46
2018-04-08T00:15:29.712Z,57.68
2018-04-08T00:17:55.633Z,57.23
2018-04-08T00:20:24.564Z,57.14
2018-04-08T00:22:50.750Z,57.56
2018-04-08T00:25:17.463Z,57.76
2018-04-08T00:27:43.379Z,57.86
2018-04-08T00:30:12.552Z,57.94
2018-04-08T00:32:38.428Z,57.88
2018-04-08T00:35:06.878Z,58.26
2018-04-08T00:37:32.762Z,58.51
2018-04-08T00:40:01.593Z,58.63
2018-04-08T00:42:27.491Z,59.00
2018-04-08T00:44:56.345Z,59.17
2018-04-08T00:47:22.221Z,59.27
2018-04-08T00:49:48.098Z,59.14
2018-04-08T00:52:13.948Z,58.68
2018-04-08T00:54:39.879Z,58.59
2018-04-08T00:57:08.932Z,58.23
2018-04-08T00:59:34.839Z,57.92
2018-04-08T01:02:02.839Z,57.78
2018-04-08T01:04:28.722Z,57.51
2018-04-08T01:06:57.683Z,56.65
2018-04-08T01:09:23.571Z,56.49
2018-04-08T01:11:52.668Z,55.92
2018-04-08T01:14:18.575Z,55.31
2018-04-08T01:16:47.929Z,55.14
2018-04-08T01:19:13.817Z,55.12
2018-04-08T01:21:42.891Z,55.79
2018-04-08T01:24:08.771Z,56.62
2018-04-08T01:26:34.632Z,57.20
2018-04-08T01:29:00.501Z,57.87
2018-04-08T01:31:26.353Z,58.10
2018-04-08T01:33:53.407Z,58.23
2018-04-08T01:36:19.303Z,58.34
2018-04-08T01:38:48.337Z,58.51
2018-04-08T01:41:14.231Z,58.87
2018-04-08T01:43:43.999Z,59.05
2018-04-08T01:46:09.826Z,59.21
2018-04-08T01:48:39.427Z,59.43
2018-04-08T01:51:05.283Z,59.25
2018-04-08T01:53:32.480Z,59.51
2018-04-08T01:55:58.364Z,59.84
2018-04-08T01:58:27.870Z,60.07
2018-04-08T02:00:53.722Z,60.33
2018-04-08T02:03:19.619Z,60.58
2018-04-08T02:05:45.476Z,60.80
2018-04-08T02:08:11.334Z,60.74
2018-04-08T02:10:38.817Z,60.43
2018-04-08T02:13:04.700Z,60.36
2018-04-08T02:15:33.534Z,60.46
2018-04-08T02:17:59.379Z,60.34
2018-04-08T02:20:28.091Z,60.12
2018-04-08T02:22:53.976Z,60.16
2018-04-08T02:25:23.055Z,59.78
2018-04-08T02:27:48.935Z,60.41
2018-04-08T02:30:18.698Z,60.47
2018-04-08T02:32:44.581Z,60.90
2018-04-08T02:35:13.992Z,60.93
2018-04-08T02:37:39.888Z,60.86
2018-04-08T02:40:05.753Z,60.88
2018-04-08T02:42:31.632Z,60.83
2018-04-08T02:44:57.483Z,60.93
2018-04-08T02:47:23.855Z,61.05
2018-04-08T02:49:49.763Z,61.91
2018-04-08T02:52:18.564Z,61.93
2018-04-08T02:54:44.457Z,61.91
2018-04-08T02:57:13.236Z,62.21
2018-04-08T02:59:39.111Z,62.13
2018-04-08T03:02:07.790Z,62.14
2018-04-08T03:04:33.688Z,62.28
2018-04-08T03:07:02.525Z,62.02
2018-04-08T03:09:28.417Z,61.75
2018-04-08T03:11:56.910Z,62.36
2018-04-08T03:14:22.771Z,62.24
2018-04-08T03:16:48.634Z,62.34
2018-04-08T03:19:14.564Z,61.96
2018-04-08T03:21:40.434Z,62.10
2018-04-08T03:24:09.166Z,62.42
2018-04-08T03:26:35.035Z,62.77
2018-04-08T03:29:03.796Z,62.55
2018-04-08T03:31:29.701Z,62.57
2018-04-08T03:33:58.511Z,62.61
2018-04-08T03:36:24.399Z,62.74
2018-04-08T03:38:53.616Z,63.22
2018-04-08T03:41:19.491Z,63.19
2018-04-08T03:43:49.082Z,62.94
2018-04-08T03:46:14.960Z,63.15
2018-04-08T03:48:42.767Z,63.47
2018-04-08T03:51:08.682Z,63.25
2018-04-08T03:53:34.551Z,63.33
2018-04-08T03:56:00.446Z,63.32
2018-04-08T03:58:26.312Z,63.38
2018-04-08T04:00:55.670Z,63.33
2018-04-08T04:03:21.541Z,63.52
2018-04-08T04:05:51.184Z,63.25
2018-04-08T04:08:17.103Z,63.31
2018-04-08T04:10:44.873Z,63.31
2018-04-08T04:13:10.772Z,63.48
2018-04-08T04:15:40.391Z,63.51
2018-04-08T04:18:18.603Z,63.74
2018-04-08T04:20:56.772Z,64.05
2018-04-08T04:23:34.887Z,63.83
2018-04-08T04:26:13.243Z,63.78
2018-04-08T04:28:39.133Z,63.94
2018-04-08T04:31:04.973Z,64.18
2018-04-08T04:33:30.845Z,64.16
2018-04-08T04:35:56.721Z,64.43
2018-04-08T04:38:22.588Z,65.15
2018-04-08T04:40:48.457Z,65.47
2018-04-08T04:43:14.373Z,65.51
2018-04-08T04:45:40.257Z,65.06
2018-04-08T04:48:06.140Z,65.38
2018-04-08T04:50:32.023Z,65.52
2018-04-08T04:52:57.916Z,65.46
2018-04-08T04:55:23.798Z,65.27
2018-04-08T04:57:49.650Z,65.62
2018-04-08T05:00:15.523Z,65.70
2018-04-08T05:02:41.436Z,65.53
2018-04-08T05:05:07.293Z,65.12
2018-04-08T05:07:33.179Z,65.14
2018-04-08T05:09:59.011Z,64.84
2018-04-08T05:12:24.893Z,65.26
2018-04-08T05:14:56.854Z,65.41
2018-04-08T05:17:22.729Z,65.04
2018-04-08T05:19:48.609Z,64.84
2018-04-08T05:22:14.467Z,65.32
2018-04-08T05:24:40.360Z,65.65
2018-04-08T05:27:06.271Z,65.44
2018-04-08T05:29:32.174Z,65.86
2018-04-08T05:31:58.033Z,65.97
2018-04-08T05:34:23.890Z,65.93
2018-04-08T05:36:49.813Z,65.11
2018-04-08T05:39:15.671Z,64.76
2018-04-08T05:41:41.527Z,64.75
2018-04-08T05:44:07.456Z,64.82
2018-04-08T05:46:33.357Z,65.15
2018-04-08T05:48:59.247Z,65.74
2018-04-08T05:51:25.081Z,65.85
2018-04-08T05:53:50.981Z,65.98
2018-04-08T05:56:16.901Z,65.45
2018-04-08T05:58:42.800Z,65.06
2018-04-08T06:01:08.696Z,64.29
2018-04-08T06:03:34.555Z,64.67
2018-04-08T06:06:00.438Z,65.13
2018-04-08T06:08:26.307Z,65.21
2018-04-08T06:10:52.178Z,65.10
2018-04-08T06:13:18.050Z,64.58
2018-04-08T06:15:44.034Z,64.03
2018-04-08T06:18:09.939Z,61.99
2018-04-08T06:20:35.859Z,60.39
2018-04-08T06:23:01.757Z,59.11
2018-04-08T06:25:27.680Z,57.42
2018-04-08T06:27:56.775Z,56.89
2018-04-08T06:30:22.703Z,56.39
2018-04-08T06:32:50.469Z,56.55
2018-04-08T06:35:16.370Z,57.34
2018-04-08T06:37:45.301Z,57.21
2018-04-08T06:40:11.206Z,57.96
2018-04-08T06:42:40.427Z,57.75
2018-04-08T06:45:06.310Z,57.10
2018-04-08T06:47:35.425Z,56.75
2018-04-08T06:50:01.315Z,56.79
2018-04-08T06:52:29.425Z,55.73
2018-04-08T06:54:55.288Z,55.89
2018-04-08T06:57:21.147Z,54.88
2018-04-08T06:59:47.118Z,54.33
2018-04-08T07:02:13.013Z,53.34
2018-04-08T07:04:42.158Z,51.39
2018-04-08T07:07:08.047Z,50.36
2018-04-08T07:09:37.681Z,48.71
2018-04-08T07:12:03.600Z,46.79
2018-04-08T07:14:31.162Z,45.36
2018-04-08T07:16:57.039Z,42.83
2018-04-08T07:19:26.770Z,41.62
2018-04-08T07:21:52.655Z,41.67
2018-04-08T07:24:20.080Z,41.85
2018-04-08T07:26:45.975Z,41.69
2018-04-08T07:29:15.163Z,39.83
2018-04-08T07:31:41.447Z,39.64
2018-04-08T07:34:07.349Z,37.83
2018-04-08T07:36:33.256Z,37.88
2018-04-08T07:38:59.095Z,36.94
2018-04-08T07:41:28.031Z,34.43
2018-04-08T07:43:53.939Z,33.30
2018-04-08T07:46:21.054Z,33.04
2018-04-08T07:48:46.963Z,34.13
2018-04-08T07:51:15.654Z,34.16
2018-04-08T07:53:41.582Z,35.35
2018-04-08T07:56:10.419Z,36.23
2018-04-08T07:58:36.323Z,36.58
2018-04-08T08:01:05.248Z,36.51
2018-04-08T08:03:31.152Z,37.38
2018-04-08T08:05:59.871Z,37.54
2018-04-08T08:08:25.728Z,38.04
2018-04-08T08:10:51.598Z,39.24
2018-04-08T08:13:17.450Z,40.15
2018-04-08T08:15:43.363Z,41.15
2018-04-08T08:18:12.034Z,41.56
2018-04-08T08:20:37.880Z,40.48
2018-04-08T08:23:07.447Z,40.39
2018-04-08T08:25:33.332Z,40.56
2018-04-08T08:28:01.323Z,40.04
2018-04-08T08:30:27.227Z,40.62
2018-04-08T08:32:56.696Z,41.25
2018-04-08T08:35:22.616Z,40.22
2018-04-08T08:37:50.365Z,39.69
2018-04-08T08:40:16.221Z,39.47
2018-04-08T08:42:48.951Z,38.00
2018-04-08T08:45:14.835Z,38.29
2018-04-08T08:47:40.693Z,38.41
2018-04-08T08:50:06.611Z,37.72
2018-04-08T08:52:32.459Z,37.40
2018-04-08T08:54:58.379Z,36.75
2018-04-08T08:57:24.202Z,36.40
2018-04-08T08:59:51.764Z,36.60
2018-04-08T09:02:17.693Z,37.76
2018-04-08T09:04:46.843Z,35.53
2018-04-08T09:07:12.731Z,35.45
2018-04-08T09:09:41.816Z,34.84
2018-04-08T09:12:07.748Z,34.82
2018-04-08T09:14:36.142Z,35.03
2018-04-08T09:17:02.061Z,35.75
2018-04-08T09:22:38.149Z,34.14
2018-04-08T09:25:04.911Z,35.68
2018-04-08T09:27:30.845Z,35.12
2018-04-08T09:29:56.669Z,35.23
2018-04-08T09:32:22.540Z,32.75
2018-04-08T09:34:48.406Z,33.40
2018-04-08T09:37:14.316Z,32.36
2018-04-08T09:39:40.190Z,30.33
2018-04-08T09:42:06.092Z,31.20
2018-04-08T09:44:31.955Z,30.87
2018-04-08T09:46:57.825Z,28.86
2018-04-08T09:49:23.739Z,28.86
2018-04-08T09:51:49.616Z,28.00
2018-04-08T09:54:15.505Z,26.89
2018-04-08T09:56:41.445Z,24.59
2018-04-08T09:59:07.311Z,25.43
2018-04-08T10:01:39.311Z,24.60
2018-04-08T10:04:05.221Z,27.03
2018-04-08T10:06:31.202Z,29.73
2018-04-08T10:08:57.083Z,30.84
2018-04-08T10:11:22.941Z,30.24
2018-04-08T10:13:48.841Z,29.85
2018-04-08T10:16:14.746Z,28.86
2018-04-08T10:18:40.626Z,28.08
2018-04-08T10:21:06.503Z,27.28
2018-04-08T10:23:32.411Z,26.98
2018-04-08T10:25:58.270Z,26.92
2018-04-08T10:28:24.154Z,27.48
2018-04-08T10:30:50.068Z,27.04
2018-04-08T10:33:15.918Z,26.05
2018-04-08T10:35:41.819Z,26.46
2018-04-08T10:38:07.706Z,26.54
2018-04-08T10:40:33.555Z,26.07
2018-04-08T10:42:59.442Z,26.73
2018-04-08T10:45:25.332Z,25.39
2018-04-08T10:47:51.271Z,24.92
2018-04-08T10:50:17.133Z,26.26
2018-04-08T10:52:42.994Z,26.16
2018-04-08T10:55:08.860Z,25.16
2018-04-08T10:57:34.752Z,24.65
2018-04-08T11:00:00.631Z,26.18
2018-04-08T11:02:26.523Z,25.52
2018-04-08T11:04:52.382Z,24.61
2018-04-08T11:07:18.268Z,24.09
2018-04-08T11:09:47.344Z,24.27
2018-04-08T11:12:13.258Z,23.53
2018-04-08T11:14:40.189Z,22.79
2018-04-08T11:17:06.414Z,23.56
2018-04-08T11:19:32.264Z,22.85
2018-04-08T11:21:58.135Z,24.15
2018-04-08T11:24:23.997Z,22.98
2018-04-08T11:26:52.669Z,22.06
2018-04-08T11:29:18.600Z,22.55
2018-04-08T11:31:47.754Z,21.52
2018-04-08T11:34:13.692Z,20.36
2018-04-08T11:36:43.071Z,20.77
2018-04-08T11:39:08.948Z,20.65
2018-04-08T11:41:37.201Z,20.57
2018-04-08T11:44:03.106Z,19.74
2018-04-08T11:46:32.193Z,19.29
2018-04-08T11:48:58.101Z,20.29
2018-04-08T11:51:23.972Z,19.16
2018-04-08T11:53:49.868Z,19.87
2018-04-08T11:56:15.717Z,20.29
2018-04-08T11:58:43.214Z,20.85
2018-04-08T12:01:09.105Z,20.19
2018-04-08T12:03:38.222Z,20.78
2018-04-08T12:06:04.078Z,20.03
2018-04-08T12:08:33.631Z,19.24
2018-04-08T12:10:59.663Z,19.68
2018-04-08T12:13:27.782Z,19.14
2018-04-08T12:15:53.651Z,19.54
2018-04-08T12:18:23.142Z,18.73
2018-04-08T12:20:49.116Z,19.10
2018-04-08T12:23:18.483Z,18.81
2018-04-08T12:25:44.375Z,18.77
2018-04-08T12:28:10.281Z,18.12
2018-04-08T12:30:36.143Z,18.92
2018-04-08T12:33:02.069Z,18.44
2018-04-08T12:35:28.497Z,18.24
2018-04-08T12:37:54.352Z,18.89
2018-04-08T12:40:23.017Z,20.10
2018-04-08T12:42:48.895Z,18.78
2018-04-08T12:47:45.753Z,18.84
2018-04-08T12:50:12.872Z,17.72
2018-04-08T12:52:38.758Z,15.94
2018-04-08T12:55:07.599Z,12.70
2018-04-08T12:57:33.471Z,15.32
2018-04-08T13:00:06.164Z,17.11
2018-04-08T13:02:32.096Z,14.41
2018-04-08T13:04:57.970Z,13.57
2018-04-08T13:07:23.822Z,17.07
2018-04-08T13:09:49.736Z,15.55
2018-04-08T13:12:15.631Z,18.03
2018-04-08T13:14:42.035Z,18.10
2018-04-08T13:17:09.177Z,16.91
2018-04-08T13:19:35.070Z,17.87
2018-04-08T13:22:04.279Z,17.16
2018-04-08T13:24:30.105Z,16.09
2018-04-08T13:26:59.762Z,15.73
2018-04-08T13:29:25.614Z,17.33
2018-04-08T13:31:53.133Z,18.75
2018-04-08T13:34:18.996Z,18.46
2018-04-08T13:36:48.732Z,17.54
2018-04-08T13:39:14.645Z,18.36
2018-04-08T13:41:40.504Z,17.28
2018-04-08T13:44:06.395Z,16.65
2018-04-08T13:46:32.269Z,16.05
2018-04-08T13:48:59.807Z,17.90
2018-04-08T13:51:25.706Z,18.09
2018-04-08T13:53:54.869Z,17.21
2018-04-08T13:56:20.765Z,16.54
2018-04-08T13:58:49.007Z,14.16
2018-04-08T14:01:14.880Z,15.50
2018-04-08T14:03:44.263Z,19.08
2018-04-08T14:06:10.171Z,20.07
2018-04-08T14:08:39.667Z,17.33
2018-04-08T14:11:05.544Z,18.42
2018-04-08T14:13:32.875Z,16.86
2018-04-08T14:15:58.810Z,18.90
2018-04-08T14:18:24.683Z,19.68
2018-04-08T14:20:50.564Z,19.76
2018-04-08T14:23:16.397Z,19.43
2018-04-08T14:25:45.488Z,20.23
2018-04-08T14:28:11.411Z,19.57
2018-04-08T14:30:41.010Z,20.99
2018-04-08T14:33:06.899Z,20.62
2018-04-08T14:35:34.715Z,21.29
2018-04-08T14:38:00.594Z,21.34
2018-04-08T14:40:29.583Z,20.87
2018-04-08T14:42:55.503Z,21.13
2018-04-08T14:45:25.039Z,20.09
2018-04-08T14:47:50.931Z,20.02
2018-04-08T14:50:18.097Z,19.41
2018-04-08T14:52:43.970Z,20.07
2018-04-08T14:55:09.850Z,21.11
2018-04-08T14:57:35.746Z,20.91
2018-04-08T15:00:01.761Z,20.45
2018-04-08T15:02:30.813Z,20.89
2018-04-08T15:04:56.729Z,20.80
2018-04-08T15:07:26.255Z,21.35
2018-04-08T15:09:52.124Z,20.19
2018-04-08T15:12:19.632Z,21.06
2018-04-08T15:14:45.800Z,20.90
2018-04-08T15:17:14.769Z,21.14
2018-04-08T15:19:40.653Z,20.02
2018-04-08T15:22:09.014Z,19.37
2018-04-08T15:24:34.870Z,19.76
2018-04-08T15:27:04.471Z,20.61
2018-04-08T15:29:30.357Z,20.76
2018-04-08T15:31:56.207Z,20.97
2018-04-08T15:34:22.079Z,20.78
2018-04-08T15:36:47.961Z,21.13
2018-04-08T15:39:15.756Z,21.88
2018-04-08T15:41:41.648Z,22.29
2018-04-08T15:44:11.404Z,22.37
2018-04-08T15:46:37.268Z,22.08
2018-04-08T15:49:06.370Z,22.68
2018-04-08T15:51:32.318Z,22.96
2018-04-08T15:53:59.260Z,23.07
2018-04-08T15:56:25.138Z,23.07
2018-04-08T15:58:54.357Z,22.92
2018-04-08T16:01:20.244Z,23.70
2018-04-08T16:03:49.686Z,24.89
2018-04-08T16:06:15.582Z,25.28
2018-04-08T16:08:41.451Z,25.86
2018-04-08T16:11:07.286Z,26.96
2018-04-08T16:13:33.144Z,27.63
2018-04-08T16:16:02.251Z,28.28
2018-04-08T16:18:28.136Z,28.29
2018-04-08T16:20:55.844Z,28.23
2018-04-08T16:23:21.692Z,28.57
2018-04-08T16:25:50.080Z,28.54
2018-04-08T16:28:15.948Z,28.58
2018-04-08T16:30:46.245Z,29.02
2018-04-08T16:33:12.155Z,29.23
2018-04-08T16:35:41.116Z,29.33
2018-04-08T16:38:06.971Z,28.30
2018-04-08T16:40:33.925Z,28.97
2018-04-08T16:42:59.919Z,28.72
2018-04-08T16:45:25.922Z,28.95
2018-04-08T16:47:51.786Z,28.84
2018-04-08T16:50:17.643Z,29.03
2018-04-08T16:52:47.455Z,29.74
2018-04-08T16:55:13.330Z,29.51
2018-04-08T16:57:40.634Z,30.03
2018-04-08T17:00:06.571Z,30.42
2018-04-08T17:02:36.144Z,30.63
2018-04-08T17:05:02.017Z,30.82
2018-04-08T17:07:31.384Z,30.99
2018-04-08T17:09:57.279Z,31.67
2018-04-08T17:12:24.606Z,32.35
2018-04-08T17:14:52.463Z,32.47
2018-04-08T17:17:19.342Z,32.53
2018-04-08T17:19:45.262Z,33.07
2018-04-08T17:22:11.154Z,33.39
2018-04-08T17:24:37.048Z,33.62
2018-04-08T17:27:02.983Z,34.43
2018-04-08T17:29:32.755Z,34.86
2018-04-08T17:31:58.621Z,34.86
2018-04-08T17:34:25.794Z,35.48
2018-04-08T17:36:51.640Z,35.55
2018-04-08T17:39:20.525Z,35.64
2018-04-08T17:41:46.452Z,35.83
2018-04-08T17:44:16.372Z,35.98
2018-04-08T17:46:42.275Z,36.14
2018-04-08T17:49:11.394Z,36.71
2018-04-08T17:51:37.262Z,36.32
2018-04-08T17:54:06.246Z,37.11
2018-04-08T17:56:32.092Z,37.37
2018-04-08T17:58:57.932Z,37.24
2018-04-08T18:01:23.817Z,37.64
2018-04-08T18:03:49.711Z,37.67
2018-04-08T18:06:16.519Z,38.04
2018-04-08T18:08:42.400Z,37.85
2018-04-08T18:11:11.416Z,38.82
2018-04-08T18:13:37.326Z,39.30
2018-04-08T18:16:06.075Z,39.78
2018-04-08T18:18:31.967Z,40.42
2018-04-08T18:21:00.421Z,40.45
2018-04-08T18:23:26.280Z,40.33
2018-04-08T18:25:55.097Z,40.67
2018-04-08T18:28:20.977Z,40.61
2018-04-08T18:30:49.662Z,41.27
2018-04-08T18:33:15.525Z,41.13
2018-04-08T18:35:41.731Z,40.86
2018-04-08T18:38:07.726Z,40.56
2018-04-08T18:40:33.619Z,40.65
2018-04-08T18:43:02.021Z,40.80
2018-04-08T18:45:27.872Z,41.77
2018-04-08T18:47:57.269Z,42.20
2018-04-08T18:50:23.162Z,42.39
2018-04-08T18:52:51.087Z,42.38
2018-04-08T18:55:16.941Z,42.43
2018-04-08T18:57:46.075Z,42.35
2018-04-08T19:00:11.938Z,42.96
2018-04-08T19:02:41.572Z,43.15
2018-04-08T19:05:07.427Z,44.21
2018-04-08T19:07:36.815Z,44.53
2018-04-08T19:10:02.782Z,44.57
2018-04-08T19:12:28.659Z,44.81
2018-04-08T19:15:00.615Z,44.65
2018-04-08T19:17:32.643Z,43.69
2018-04-08T19:19:58.514Z,42.82
2018-04-08T19:22:24.395Z,42.32
2018-04-08T19:24:50.305Z,42.02
2018-04-08T19:27:22.456Z,42.18
2018-04-08T19:29:48.302Z,42.58
2018-04-08T19:32:14.202Z,43.15
2018-04-08T19:34:40.064Z,42.93
2018-04-08T19:37:05.927Z,42.08
2018-04-08T19:39:31.844Z,42.14
2018-04-08T19:41:58.015Z,42.31
2018-04-08T19:44:23.880Z,42.07
2018-04-08T19:46:49.775Z,42.12
2018-04-08T19:49:15.663Z,42.29
2018-04-08T19:51:41.516Z,42.57
2018-04-08T19:54:07.375Z,42.74
2018-04-08T19:56:33.284Z,42.84
2018-04-08T19:58:59.137Z,42.48
2018-04-08T20:01:26.836Z,42.45
2018-04-08T20:03:52.740Z,42.16
2018-04-08T20:06:21.525Z,42.27
2018-04-08T20:08:47.417Z,42.40
2018-04-08T20:11:16.338Z,42.39
2018-04-08T20:13:42.210Z,42.49
2018-04-08T20:16:11.814Z,42.74
2018-04-08T20:18:37.703Z,43.12
2018-04-08T20:21:06.716Z,44.19
2018-04-08T20:23:32.579Z,44.83
2018-04-08T20:25:58.468Z,44.36
2018-04-08T20:28:24.355Z,44.11
2018-04-08T20:30:50.215Z,44.26
2018-04-08T20:33:19.274Z,44.16
2018-04-08T20:35:45.160Z,43.83
2018-04-08T20:38:12.204Z,44.34
2018-04-08T20:40:38.131Z,43.93
2018-04-08T20:43:07.080Z,44.29
2018-04-08T20:45:32.945Z,45.21
2018-04-08T20:48:02.243Z,45.07
2018-04-08T20:50:28.099Z,45.69
2018-04-08T20:52:57.605Z,46.11
2018-04-08T20:55:23.522Z,46.44
2018-04-08T20:57:52.609Z,46.41
2018-04-08T21:00:19.364Z,46.34
2018-04-08T21:02:45.236Z,47.49
2018-04-08T21:05:11.114Z,48.49
2018-04-08T21:07:37.004Z,48.98
2018-04-08T21:10:02.903Z,49.01
2018-04-08T21:12:28.751Z,49.03
2018-04-08T21:14:57.416Z,49.18
2018-04-08T21:17:23.281Z,49.09
2018-04-08T21:19:52.050Z,49.49
2018-04-08T21:22:17.927Z,49.07
2018-04-08T21:24:46.632Z,49.47
2018-04-08T21:27:12.580Z,49.34
2018-04-08T21:29:41.529Z,49.36
2018-04-08T21:32:07.390Z,49.76
2018-04-08T21:34:36.826Z,49.73
2018-04-08T21:37:02.743Z,50.06
2018-04-08T21:39:28.583Z,50.29
2018-04-08T21:41:54.475Z,50.80
2018-04-08T21:44:20.407Z,51.16
2018-04-08T21:46:49.840Z,51.17
2018-04-08T21:49:15.707Z,51.07
2018-04-08T21:51:43.352Z,50.82
2018-04-08T21:54:09.252Z,51.03
2018-04-08T21:56:38.177Z,51.61
2018-04-08T21:59:04.048Z,51.56
2018-04-08T22:01:33.155Z,51.60
2018-04-08T22:03:58.994Z,51.43
2018-04-08T22:06:27.045Z,51.14
2018-04-08T22:08:52.883Z,50.87
2018-04-08T22:11:21.560Z,50.63
2018-04-08T22:13:47.430Z,50.39
2018-04-08T22:16:13.288Z,50.93
2018-04-08T22:18:39.180Z,50.92
2018-04-08T22:21:05.060Z,51.44
2018-04-08T22:23:34.871Z,52.36
2018-04-08T22:26:00.763Z,53.20
2018-04-08T22:28:28.166Z,55.07
2018-04-08T22:30:54.040Z,55.67
2018-04-08T22:33:22.708Z,55.86
2018-04-08T22:35:48.597Z,56.76
2018-04-08T22:38:17.436Z,56.42
2018-04-08T22:40:43.298Z,56.72
2018-04-08T22:43:12.211Z,56.80
2018-04-08T22:45:38.136Z,56.25
2018-04-08T22:48:07.195Z,55.81
2018-04-08T22:50:33.114Z,55.93
2018-04-08T22:52:59.029Z,55.61
2018-04-08T22:55:24.917Z,55.31
2018-04-08T22:57:50.785Z,55.78
2018-04-08T23:00:24.739Z,55.68
2018-04-08T23:02:50.574Z,55.93
2018-04-08T23:05:16.450Z,56.42
2018-04-08T23:07:42.310Z,56.77
2018-04-08T23:10:08.269Z,56.72
2018-04-08T23:12:34.116Z,56.85
2018-04-08T23:15:03.480Z,56.84
2018-04-08T23:17:29.471Z,56.98
2018-04-08T23:19:58.660Z,57.46
2018-04-08T23:22:24.527Z,57.45
2018-04-08T23:24:54.014Z,57.30
2018-04-08T23:27:19.900Z,57.94
2018-04-08T23:29:45.754Z,58.35
2018-04-08T23:32:11.617Z,58.28
2018-04-08T23:34:37.490Z,58.44
2018-04-08T23:37:04.359Z,58.46
2018-04-08T23:39:30.268Z,58.09
2018-04-08T23:41:58.829Z,58.05
2018-04-08T23:44:24.700Z,58.71
2018-04-08T23:46:53.919Z,58.98
2018-04-08T23:49:19.800Z,58.75
2018-04-08T23:51:48.896Z,58.87
2018-04-08T23:54:14.779Z,58.82
2018-04-08T23:56:43.859Z,58.51
2018-04-08T23:59:09.719Z,58.91
